Time;durP1;ratioP1;P1;durP2;ratioP2;P2;SDS_P1;SDS_P2;PMS_P1;PMS_P2;Temp;Humidity;BMP_temperature;BMP_pressure;BME280_temperature;BME280_humidity;BME280_pressure;Samples;Min_cycle;Max_cycle;Signal;HPM_P1;HPM_P2
2022/03/31 16:09:55;;;;;;;1.70;1.60;;;8.30;99.90;;;;;;5110008;27;20559;-77
2022/03/31 16:12:22;;;;;;;3.07;1.90;;;9.30;99.80;;;;;;5096129;28;20194;-76
2022/03/31 16:14:50;;;;;;;1.80;1.43;;;9.30;99.80;;;;;;5089850;28;20199;-77
2022/03/31 16:17:17;;;;;;;1.93;1.27;;;9.20;99.90;;;;;;5089504;28;20217;-77
2022/03/31 16:19:43;;;;;;;1.60;1.40;;;9.20;99.90;;;;;;5089395;28;20223;-76
2022/03/31 16:22:10;;;;;;;3.50;1.37;;;9.20;99.90;;;;;;5102698;28;20206;-76
2022/03/31 16:24:39;;;;;;;1.93;1.50;;;9.20;99.90;;;;;;5110346;28;20205;-77
2022/03/31 16:27:07;;;;;;;1.70;1.43;;;9.00;99.90;;;;;;5109968;28;20612;-77
2022/03/31 16:29:34;;;;;;;2.33;1.60;;;8.90;99.90;;;;;;5109813;28;20226;-77
2022/03/31 16:32:01;;;;;;;2.60;2.00;;;8.80;99.90;;;;;;5109719;28;20208;-77
2022/03/31 16:34:28;;;;;;;1.67;1.50;;;8.70;99.90;;;;;;5109771;28;20213;-77
2022/03/31 16:36:55;;;;;;;3.90;1.80;;;8.60;99.90;;;;;;5104527;28;20651;-77
2022/03/31 16:39:22;;;;;;;3.40;2.20;;;8.40;99.90;;;;;;5109570;28;20234;-77
2022/03/31 16:41:49;;;;;;;3.77;2.90;;;8.20;99.90;;;;;;5108395;28;20190;-77
2022/03/31 16:44:20;;;;;;;3.00;2.30;;;8.00;99.90;;;;;;5104930;28;20198;-76
2022/03/31 16:46:47;;;;;;;3.30;2.30;;;7.90;99.90;;;;;;5109432;28;20198;-76
2022/03/31 16:49:14;;;;;;;2.97;2.10;;;7.90;99.90;;;;;;5109526;28;20283;-76
2022/03/31 16:51:42;;;;;;;3.83;2.50;;;7.90;99.90;;;;;;5109633;28;20217;-77
2022/03/31 16:54:09;;;;;;;4.10;2.70;;;7.90;99.90;;;;;;5109434;28;20667;-76
2022/03/31 16:56:36;;;;;;;4.03;2.87;;;7.90;99.90;;;;;;5109475;28;20229;-77
2022/03/31 16:59:03;;;;;;;3.87;2.50;;;7.90;99.90;;;;;;5108602;28;20222;-77
2022/03/31 17:01:32;;;;;;;4.40;2.40;;;8.00;99.90;;;;;;5091829;28;20277;-77
2022/03/31 17:03:59;;;;;;;5.00;2.57;;;8.10;99.90;;;;;;5088931;28;20656;-77
2022/03/31 17:06:25;;;;;;;4.97;3.50;;;8.10;99.90;;;;;;5089148;28;20203;-76
2022/03/31 17:08:53;;;;;;;5.13;3.57;;;7.90;99.90;;;;;;5086494;28;20231;-76
2022/03/31 17:11:20;;;;;;;6.33;3.67;;;7.50;99.90;;;;;;5075385;28;20553;-76
2022/03/31 17:13:47;;;;;;;4.93;3.17;;;7.10;99.90;;;;;;5077700;28;20199;-76
2022/03/31 17:16:14;;;;;;;7.73;3.97;;;6.90;99.90;;;;;;5077394;28;20206;-75
2022/03/31 17:18:42;;;;;;;4.87;3.20;;;6.60;99.90;;;;;;5075103;28;20322;-76
2022/03/31 17:21:09;;;;;;;9.30;3.87;;;6.30;99.90;;;;;;5075399;28;20207;-75
2022/03/31 17:23:40;;;;;;;4.80;2.73;;;5.90;99.90;;;;;;5084618;28;20198;-76
2022/03/31 17:26:07;;;;;;;3.63;2.57;;;5.60;99.90;;;;;;5094698;28;20194;-75
2022/03/31 17:28:34;;;;;;;3.43;2.30;;;5.50;99.90;;;;;;5095191;28;20368;-74
2022/03/31 17:31:01;;;;;;;4.97;2.80;;;5.30;99.90;;;;;;5095186;28;20208;-73
2022/03/31 17:33:29;;;;;;;3.80;2.57;;;5.30;99.90;;;;;;5095275;28;20234;-73
2022/03/31 17:35:57;;;;;;;4.93;2.80;;;5.30;99.90;;;;;;5089947;28;20226;-74
2022/03/31 17:38:24;;;;;;;4.37;2.93;;;5.30;99.90;;;;;;5073014;28;20223;-74
2022/03/31 17:40:52;;;;;;;3.83;2.47;;;5.40;99.90;;;;;;5073465;28;20286;-74
2022/03/31 17:43:21;;;;;;;3.20;2.20;;;5.40;99.90;;;;;;5074946;28;20228;-74
2022/03/31 17:45:49;;;;;;;3.00;1.93;;;5.40;99.90;;;;;;5083334;28;20195;-74
2022/03/31 17:48:16;;;;;;;2.10;1.70;;;5.40;99.90;;;;;;5084435;28;20695;-74
2022/03/31 17:50:43;;;;;;;2.90;2.20;;;5.30;99.90;;;;;;5081154;28;20195;-76
2022/03/31 17:53:12;;;;;;;3.17;2.20;;;5.40;99.90;;;;;;5092687;28;20202;-75
2022/03/31 17:55:40;;;;;;;3.30;2.40;;;5.40;99.90;;;;;;5094656;28;20928;-75
2022/03/31 17:58:09;;;;;;;5.77;3.07;;;5.40;99.90;;;;;;5094764;28;20261;-75
2022/03/31 18:00:36;;;;;;;3.70;2.33;;;5.30;99.90;;;;;;5094955;28;20206;-75
2022/03/31 18:03:04;;;;;;;3.17;2.40;;;5.40;99.90;;;;;;5094457;28;20198;-75
2022/03/31 18:05:33;;;;;;;3.07;1.67;;;5.40;99.90;;;;;;5094087;28;20651;-75
2022/03/31 18:08:00;;;;;;;4.13;1.60;;;5.30;99.90;;;;;;5094177;28;20703;-75
2022/03/31 18:10:28;;;;;;;3.37;1.70;;;5.20;99.90;;;;;;5094228;28;20205;-75
2022/03/31 18:12:55;;;;;;;2.37;1.60;;;5.20;99.90;;;;;;5094513;28;20199;-75
2022/03/31 18:15:23;;;;;;;2.43;1.50;;;5.20;99.90;;;;;;5078696;28;20207;-81
2022/03/31 18:17:52;;;;;;;6.23;2.67;;;5.30;99.90;;;;;;5074016;28;20211;-79
2022/03/31 18:20:20;;;;;;;3.23;1.60;;;5.30;99.90;;;;;;5080589;28;20671;-81
2022/03/31 18:22:49;;;;;;;2.50;1.60;;;5.40;99.90;;;;;;5093930;28;20204;-83
2022/03/31 18:25:17;;;;;;;2.50;1.60;;;5.40;99.90;;;;;;5078926;28;20235;-84
2022/03/31 18:27:45;;;;;;;2.13;1.43;;;5.40;99.90;;;;;;5073245;28;20214;-78
2022/03/31 18:35:45;;;;;;;2.37;1.70;;;5.20;99.90;;;;;;5073648;28;20591;-79
2022/03/31 18:38:16;;;;;;;3.17;1.90;;;5.30;99.90;;;;;;5073506;28;20751;-78
2022/03/31 18:40:43;;;;;;;2.03;1.50;;;5.20;99.90;;;;;;5075071;28;20203;-79
2022/03/31 18:43:12;;;;;;;2.80;1.70;;;5.20;99.90;;;;;;5082233;28;20198;-80
2022/03/31 18:45:40;;;;;;;2.00;1.40;;;5.20;99.90;;;;;;5093525;28;20205;-79
2022/03/31 18:48:07;;;;;;;3.90;2.30;;;5.30;99.90;;;;;;5082134;28;20221;-79
2022/03/31 18:50:34;;;;;;;4.20;2.80;;;5.30;99.90;;;;;;5092701;28;20547;-79
2022/03/31 18:53:01;;;;;;;6.27;3.97;;;5.40;99.90;;;;;;5092965;28;20207;-80
2022/03/31 18:55:29;;;;;;;9.07;4.93;;;5.50;99.90;;;;;;5093068;28;20285;-79
2022/03/31 18:57:56;;;;;;;8.10;5.13;;;5.40;99.90;;;;;;5091359;28;20214;-80
2022/03/31 19:00:25;;;;;;;8.00;4.77;;;5.50;99.90;;;;;;5093274;28;20569;-79
2022/03/31 19:02:52;;;;;;;7.63;5.10;;;5.50;99.90;;;;;;5093486;28;20202;-80
2022/03/31 19:05:19;;;;;;;6.53;4.17;;;5.30;99.90;;;;;;5093255;28;20281;-80
2022/03/31 19:07:47;;;;;;;7.20;4.70;;;5.30;99.90;;;;;;5093227;28;20226;-79
2022/03/31 19:10:15;;;;;;;6.40;4.00;;;5.30;99.90;;;;;;5092538;28;20663;-80
2022/03/31 19:12:43;;;;;;;5.63;3.87;;;5.30;99.90;;;;;;5093051;28;20209;-79
2022/03/31 19:15:10;;;;;;;7.27;4.30;;;5.10;99.90;;;;;;5093120;28;20237;-78
2022/03/31 19:17:41;;;;;;;5.20;3.43;;;5.00;99.90;;;;;;5093251;28;20213;-79
2022/03/31 19:20:09;;;;;;;6.40;4.20;;;4.90;99.90;;;;;;5093130;28;20234;-80
2022/03/31 19:22:36;;;;;;;6.27;3.60;;;5.00;99.90;;;;;;5092658;28;20215;-79
2022/03/31 19:25:03;;;;;;;5.43;3.53;;;5.20;99.90;;;;;;5093154;28;20203;-80
2022/03/31 19:27:30;;;;;;;4.77;3.27;;;5.20;99.90;;;;;;5092912;28;20207;-80
2022/03/31 19:29:58;;;;;;;4.23;3.00;;;5.20;99.90;;;;;;5092653;28;20347;-78
2022/03/31 19:32:25;;;;;;;5.67;2.90;;;5.10;99.90;;;;;;5092504;28;20679;-78
2022/03/31 19:34:54;;;;;;;5.33;3.63;;;5.00;99.90;;;;;;5092812;28;20673;-78
2022/03/31 19:37:21;;;;;;;4.60;2.77;;;5.10;99.90;;;;;;5093206;28;20221;-78
2022/03/31 19:39:47;;;;;;;3.27;2.67;;;5.30;99.90;;;;;;5092261;28;20240;-78
2022/03/31 19:42:14;;;;;;;4.87;2.87;;;5.20;99.90;;;;;;5092055;28;20237;-78
2022/03/31 19:44:41;;;;;;;3.73;2.80;;;5.10;99.90;;;;;;5092936;28;20207;-78
2022/03/31 19:47:09;;;;;;;3.97;3.00;;;5.10;99.90;;;;;;5074275;28;20682;-79
2022/03/31 19:49:37;;;;;;;5.00;2.70;;;5.10;99.90;;;;;;5072457;28;20767;-79
2022/03/31 19:52:05;;;;;;;4.97;2.57;;;5.10;99.90;;;;;;5072422;28;20286;-79
2022/03/31 19:54:32;;;;;;;3.27;2.20;;;5.10;99.90;;;;;;5073904;28;20211;-78
2022/03/31 19:56:59;;;;;;;5.57;3.27;;;5.00;99.90;;;;;;5092705;28;20208;-79
2022/03/31 19:59:26;;;;;;;3.97;3.13;;;5.00;99.90;;;;;;5092015;28;20710;-78
2022/03/31 20:01:53;;;;;;;4.87;3.07;;;5.00;99.90;;;;;;5092529;28;20202;-78
2022/03/31 20:04:20;;;;;;;5.63;3.00;;;5.10;99.90;;;;;;5092393;28;20213;-78
2022/03/31 20:06:48;;;;;;;4.00;2.80;;;5.10;99.90;;;;;;5092158;28;20206;-78
2022/03/31 20:09:16;;;;;;;5.00;3.30;;;5.20;99.90;;;;;;5092057;28;20237;-78
2022/03/31 20:11:43;;;;;;;4.23;2.90;;;5.30;99.90;;;;;;5092240;28;20297;-78
2022/03/31 20:14:10;;;;;;;3.63;2.60;;;5.20;99.90;;;;;;5092023;28;20213;-79
2022/03/31 20:16:39;;;;;;;4.20;3.00;;;5.20;99.90;;;;;;5084841;28;20199;-79
2022/03/31 20:19:08;;;;;;;5.03;3.50;;;5.30;99.90;;;;;;5084909;28;20265;-78
2022/03/31 20:21:35;;;;;;;4.40;3.00;;;5.20;99.90;;;;;;5087175;28;20783;-79
2022/03/31 20:24:08;;;;;;;4.77;3.17;;;5.30;99.90;;;;;;5092029;28;20537;-78
2022/03/31 20:26:37;;;;;;;4.37;3.20;;;5.30;99.90;;;;;;5086759;28;20211;-79
2022/03/31 20:29:05;;;;;;;4.70;3.60;;;5.30;99.90;;;;;;5091986;28;20244;-79
2022/03/31 20:31:31;;;;;;;4.40;3.20;;;5.30;99.90;;;;;;5092268;28;20252;-78
2022/03/31 20:33:58;;;;;;;4.13;3.00;;;5.30;99.90;;;;;;5092748;28;20203;-79
2022/03/31 20:36:25;;;;;;;6.70;3.20;;;5.30;99.90;;;;;;5091938;28;20854;-78
2022/03/31 20:38:52;;;;;;;5.60;3.60;;;5.30;99.90;;;;;;5089051;28;20230;-78
2022/03/31 20:41:19;;;;;;;5.30;3.70;;;5.40;99.90;;;;;;5086726;28;20206;-78
2022/03/31 20:43:47;;;;;;;5.10;3.80;;;5.40;99.90;;;;;;5086504;28;20199;-79
2022/03/31 20:46:14;;;;;;;4.87;3.60;;;5.40;99.90;;;;;;5095660;28;20194;-78
2022/03/31 20:48:42;;;;;;;4.60;3.50;;;5.50;99.90;;;;;;5093847;28;20254;-78
2022/03/31 20:51:10;;;;;;;4.77;3.30;;;5.40;99.90;;;;;;5092686;28;20198;-79
2022/03/31 20:53:37;;;;;;;5.17;3.53;;;5.40;99.90;;;;;;5090635;28;20206;-79
2022/03/31 20:56:05;;;;;;;6.27;3.77;;;5.40;99.90;;;;;;5083217;28;20698;-79
2022/03/31 20:58:32;;;;;;;5.37;3.57;;;5.40;99.90;;;;;;5074824;28;20604;-78
2022/03/31 21:01:00;;;;;;;5.27;3.73;;;5.60;99.90;;;;;;5082885;28;20205;-79
2022/03/31 21:03:27;;;;;;;6.87;4.23;;;5.60;99.90;;;;;;5095281;28;20207;-79
2022/03/31 21:05:54;;;;;;;6.10;4.00;;;5.60;99.90;;;;;;5095471;28;20290;-78
2022/03/31 21:08:21;;;;;;;5.43;3.87;;;5.50;99.90;;;;;;5096599;28;20256;-79
2022/03/31 21:10:48;;;;;;;5.43;3.63;;;5.70;99.90;;;;;;5095141;28;20285;-78
2022/03/31 21:13:15;;;;;;;5.87;4.30;;;5.60;99.90;;;;;;5092225;28;20285;-78
2022/03/31 21:15:42;;;;;;;7.00;4.20;;;5.50;99.90;;;;;;5095895;28;20199;-79
2022/03/31 21:18:12;;;;;;;4.97;3.80;;;5.50;99.90;;;;;;5095477;28;20226;-78
2022/03/31 21:20:39;;;;;;;5.87;4.00;;;5.50;99.90;;;;;;5095079;28;20714;-79
2022/03/31 21:23:08;;;;;;;5.60;4.10;;;5.50;99.90;;;;;;5094976;28;20205;-79
2022/03/31 21:25:35;;;;;;;5.27;3.70;;;5.50;99.90;;;;;;5090038;28;20253;-79
2022/03/31 21:28:02;;;;;;;5.77;3.90;;;5.50;99.90;;;;;;5089008;28;20217;-79
2022/03/31 21:30:30;;;;;;;7.63;4.40;;;5.60;99.90;;;;;;5103919;28;20570;-79
2022/03/31 21:32:59;;;;;;;7.30;4.20;;;5.80;99.90;;;;;;5104937;28;20197;-79
2022/03/31 21:35:27;;;;;;;5.50;4.23;;;5.80;99.90;;;;;;5105578;28;20706;-79
2022/03/31 21:37:55;;;;;;;8.10;4.63;;;5.70;99.90;;;;;;5103173;28;20223;-79
2022/03/31 21:40:22;;;;;;;6.87;4.07;;;5.60;99.90;;;;;;5104791;28;20233;-79
2022/03/31 21:42:50;;;;;;;6.70;4.20;;;5.70;99.90;;;;;;5094697;28;20206;-79
2022/03/31 21:45:17;;;;;;;6.63;4.70;;;5.80;99.90;;;;;;5099302;28;20248;-79
2022/03/31 21:47:43;;;;;;;7.70;4.27;;;5.80;99.90;;;;;;5091320;28;20205;-79
2022/03/31 21:50:11;;;;;;;7.43;4.20;;;5.80;99.90;;;;;;5091968;28;20563;-79
2022/03/31 21:52:40;;;;;;;7.30;4.90;;;5.80;99.90;;;;;;5076216;28;20203;-79
2022/03/31 21:55:08;;;;;;;6.63;4.63;;;5.80;99.90;;;;;;5093368;28;20199;-79
2022/03/31 21:57:35;;;;;;;9.87;4.87;;;5.80;99.90;;;;;;5093489;28;20202;-79
2022/03/31 22:00:03;;;;;;;6.93;4.53;;;5.70;99.90;;;;;;5093942;28;20695;-79
2022/03/31 22:02:31;;;;;;;7.87;4.83;;;5.70;99.90;;;;;;5094988;28;20260;-79
2022/03/31 22:04:58;;;;;;;5.33;4.13;;;5.50;99.90;;;;;;5093828;28;20659;-78
2022/03/31 22:07:24;;;;;;;6.77;4.60;;;5.70;99.90;;;;;;5094065;28;20302;-79
2022/03/31 22:12:37;;;;;;;6.10;4.10;;;5.50;99.90;;;;;;5093762;28;20209;-79
2022/03/31 22:15:04;;;;;;;6.43;4.17;;;5.70;99.90;;;;;;5093996;28;20663;-79
2022/03/31 22:17:31;;;;;;;5.73;3.50;;;5.70;99.90;;;;;;5094315;28;20614;-79
2022/03/31 22:19:58;;;;;;;5.43;3.70;;;5.60;99.90;;;;;;5093979;28;20329;-79
2022/03/31 22:22:25;;;;;;;4.00;2.80;;;5.50;99.90;;;;;;5094270;28;20248;-79
2022/03/31 22:24:54;;;;;;;4.80;2.90;;;5.50;99.90;;;;;;5079316;28;20609;-79
2022/03/31 22:27:21;;;;;;;4.87;2.73;;;5.40;99.90;;;;;;5073321;28;20640;-79
2022/03/31 22:29:51;;;;;;;3.53;2.70;;;5.40;99.90;;;;;;5073582;28;20591;-79
2022/03/31 22:32:18;;;;;;;4.47;3.23;;;5.30;99.90;;;;;;5073810;28;20580;-79
2022/03/31 22:34:45;;;;;;;4.47;2.70;;;5.20;99.90;;;;;;5073423;28;20207;-79
2022/03/31 22:37:13;;;;;;;5.13;3.20;;;5.20;99.90;;;;;;5073237;28;20290;-79
2022/03/31 22:39:40;;;;;;;5.27;3.10;;;5.20;99.90;;;;;;5073329;28;20680;-78
2022/03/31 22:42:10;;;;;;;5.93;3.50;;;5.10;99.90;;;;;;5073265;28;20674;-79
2022/03/31 22:44:38;;;;;;;5.53;3.20;;;5.00;99.90;;;;;;5073349;28;20207;-79
2022/03/31 22:47:05;;;;;;;5.67;3.20;;;5.00;99.90;;;;;;5072755;28;20656;-79
2022/03/31 22:49:33;;;;;;;5.40;3.30;;;5.10;99.90;;;;;;5072993;28;20227;-79
2022/03/31 22:52:00;;;;;;;4.43;3.00;;;5.10;99.90;;;;;;5076332;28;20207;-79
2022/03/31 22:54:29;;;;;;;5.03;3.40;;;5.10;99.90;;;;;;5073324;28;20207;-79
2022/03/31 22:56:57;;;;;;;4.57;2.90;;;5.20;99.90;;;;;;5072655;28;20203;-79
2022/03/31 22:59:25;;;;;;;5.50;3.23;;;5.10;99.90;;;;;;5073341;28;20656;-79
2022/03/31 23:01:53;;;;;;;6.97;3.57;;;5.10;99.90;;;;;;5073184;28;20206;-80
2022/03/31 23:04:21;;;;;;;4.07;2.97;;;5.00;99.90;;;;;;5073010;28;20207;-79
2022/03/31 23:06:48;;;;;;;4.73;3.13;;;5.00;99.90;;;;;;5072907;28;20200;-79
2022/03/31 23:09:15;;;;;;;4.37;3.13;;;4.80;99.90;;;;;;5072782;28;20231;-79
2022/03/31 23:11:42;;;;;;;5.53;3.43;;;4.80;99.90;;;;;;5073147;28;20209;-79
2022/03/31 23:14:11;;;;;;;4.50;3.13;;;4.90;99.90;;;;;;5073098;28;20204;-79
2022/03/31 23:16:39;;;;;;;6.47;3.27;;;4.80;99.90;;;;;;5073040;28;20210;-79
2022/03/31 23:19:06;;;;;;;5.17;3.37;;;4.80;99.90;;;;;;5073090;28;20306;-79
2022/03/31 23:21:33;;;;;;;3.97;3.00;;;5.00;99.90;;;;;;5072652;28;20237;-79
2022/03/31 23:24:00;;;;;;;3.90;3.10;;;5.00;99.90;;;;;;5072669;28;20249;-79
2022/03/31 23:26:26;;;;;;;4.17;3.00;;;4.90;99.90;;;;;;5072661;28;20207;-79
2022/03/31 23:28:53;;;;;;;4.10;3.37;;;5.10;99.90;;;;;;5072873;28;20227;-79
2022/03/31 23:31:22;;;;;;;3.93;2.90;;;5.10;99.90;;;;;;5072592;28;20203;-80
2022/03/31 23:33:50;;;;;;;4.17;3.03;;;5.00;99.90;;;;;;5072950;28;20288;-79
2022/03/31 23:36:17;;;;;;;4.70;3.73;;;4.80;99.90;;;;;;5072829;28;20203;-79
2022/03/31 23:38:44;;;;;;;4.87;3.17;;;4.70;99.90;;;;;;5072229;28;20223;-79
2022/03/31 23:41:11;;;;;;;4.60;3.70;;;4.50;99.90;;;;;;5072028;28;20622;-79
2022/03/31 23:43:38;;;;;;;5.30;3.33;;;4.50;99.90;;;;;;5071881;28;20214;-79
2022/03/31 23:46:05;;;;;;;5.67;3.90;;;4.40;99.90;;;;;;5072531;28;20205;-79
2022/03/31 23:48:32;;;;;;;5.40;3.60;;;4.40;99.90;;;;;;5072539;28;20219;-79
2022/03/31 23:51:00;;;;;;;7.30;3.70;;;4.50;99.90;;;;;;5072501;28;20671;-79
2022/03/31 23:53:27;;;;;;;4.33;3.07;;;4.70;99.90;;;;;;5072537;28;20207;-79
2022/03/31 23:55:54;;;;;;;5.17;3.03;;;4.70;99.90;;;;;;5072748;28;20207;-79
2022/03/31 23:58:21;;;;;;;6.03;3.53;;;4.70;99.90;;;;;;5072284;28;20223;-80
